Time;durP1;ratioP1;P1;durP2;ratioP2;P2;SDS_P1;SDS_P2;PMS_P1;PMS_P2;Temp;Humidity;BMP_temperature;BMP_pressure;BME280_temperature;BME280_humidity;BME280_pressure;Samples;Min_cycle;Max_cycle;Signal;HPM_P1;HPM_P2
2020/12/21 00:11:00;;;;;;;;;;;;;;;;;;;;;
2020/12/21 00:28:09;;;;;;;151.98;84.07;;;11.60;99.90;;;;;;4911819;29;20165;-79
2020/12/21 00:47:44;;;;;;;159.23;88.78;;;11.60;99.90;;;;;;4901142;29;20619;-78
2020/12/21 00:57:02;;;;;;;149.98;83.88;;;11.60;99.90;;;;;;4876217;29;20081;-79
2020/12/21 00:59:28;;;;;;;146.45;84.68;;;11.60;99.90;;;;;;4878092;29;20039;-79
2020/12/21 01:01:54;;;;;;;147.43;81.97;;;11.60;99.90;;;;;;4935553;29;20118;-81
2020/12/21 01:04:21;;;;;;;166.48;87.70;;;11.60;99.90;;;;;;4968806;28;20073;-80
2020/12/21 01:06:53;;;;;;;160.90;87.22;;;11.50;99.90;;;;;;5011697;28;20021;-81
2020/12/21 01:09:19;;;;;;;159.20;83.93;;;11.50;99.90;;;;;;5014235;28;20014;-80
2020/12/21 01:11:44;;;;;;;153.30;85.35;;;11.40;99.90;;;;;;5017434;28;20450;-81
2020/12/21 01:14:10;;;;;;;150.90;81.75;;;11.40;99.90;;;;;;5017163;28;20426;-79
2020/12/21 01:17:28;;;;;;;154.00;82.32;;;11.40;99.90;;;;;;5018750;28;20121;-79
2020/12/21 01:20:25;;;;;;;150.45;83.75;;;11.40;99.90;;;;;;5010612;28;20084;-79
2020/12/21 01:23:12;;;;;;;137.05;78.60;;;11.50;99.90;;;;;;5013788;28;20170;-80
2020/12/21 01:29:19;;;;;;;137.15;77.00;;;11.40;99.90;;;;;;5005296;28;20069;-79
2020/12/21 01:32:25;;;;;;;142.43;77.78;;;11.40;99.90;;;;;;5012859;28;20041;-79
2020/12/21 01:35:04;;;;;;;134.30;76.45;;;11.40;99.90;;;;;;5013566;28;20030;-80
2020/12/21 01:37:46;;;;;;;;;;;;;;;;;;;;;
2020/12/21 01:48:09;;;;;;;137.38;75.13;;;11.30;99.90;;;;;;4952938;29;20145;-78
2020/12/21 01:50:58;;;;;;;137.48;75.28;;;11.30;99.90;;;;;;4946792;29;20431;-77
2020/12/21 01:57:18;;;;;;;138.55;74.47;;;11.30;99.90;;;;;;4932884;29;20036;-79
2020/12/21 02:03:48;;;;;;;;;;;;;;;;;;;;;
2020/12/21 02:09:35;;;;;;;136.82;76.45;;;11.40;99.90;;;;;;4876569;29;20060;-79
2020/12/21 02:12:03;;;;;;;139.52;77.32;;;11.40;99.90;;;;;;4895305;29;20039;-80
2020/12/21 02:14:35;;;;;;;141.65;76.15;;;11.40;99.90;;;;;;4937042;28;20113;-80
2020/12/21 02:17:01;;;;;;;;;;;11.40;99.90;;;;;;4971839;28;20070;-80
2020/12/21 02:19:27;;;;;;;143.32;75.82;;;11.40;99.90;;;;;;4978768;28;20047;-80
2020/12/21 02:21:53;;;;;;;136.30;77.63;;;11.40;99.90;;;;;;5032634;28;20018;-81
2020/12/21 02:24:18;;;;;;;150.55;79.13;;;11.40;99.90;;;;;;5014592;28;20087;-81
2020/12/21 02:26:44;;;;;;;147.27;79.53;;;11.40;99.90;;;;;;5032018;28;20037;-81
2020/12/21 02:29:10;;;;;;;145.95;82.28;;;11.40;99.90;;;;;;5031336;28;20475;-79
2020/12/21 02:31:36;;;;;;;154.02;78.93;;;11.30;99.90;;;;;;5032138;28;20033;-80
2020/12/21 02:34:01;;;;;;;139.40;78.20;;;11.30;99.90;;;;;;5032322;28;20097;-81
2020/12/21 02:36:27;;;;;;;130.45;73.65;;;11.30;99.90;;;;;;5031908;28;20108;-79
2020/12/21 02:38:53;;;;;;;127.53;74.43;;;11.30;99.90;;;;;;5032223;28;20033;-80
2020/12/21 02:41:19;;;;;;;130.85;72.25;;;11.40;99.90;;;;;;5031567;28;20014;-80
2020/12/21 02:43:45;;;;;;;130.95;72.28;;;11.40;99.90;;;;;;5031779;28;20074;-81
2020/12/21 02:46:16;;;;;;;124.20;71.05;;;11.40;99.90;;;;;;5031375;28;20551;-80
2020/12/21 02:48:42;;;;;;;129.32;73.13;;;11.40;99.90;;;;;;5031519;28;20478;-81
2020/12/21 02:51:08;;;;;;;137.73;76.85;;;11.40;99.90;;;;;;5031442;28;20038;-80
2020/12/21 02:53:34;;;;;;;142.15;76.18;;;11.40;99.90;;;;;;5033302;28;20024;-80
2020/12/21 02:55:59;;;;;;;140.77;78.10;;;11.50;99.90;;;;;;5041668;28;20693;-80
2020/12/21 02:58:25;;;;;;;138.43;79.20;;;11.40;99.90;;;;;;5031008;28;20025;-80
2020/12/21 03:00:51;;;;;;;140.15;78.35;;;11.50;99.90;;;;;;5031973;28;20059;-81
2020/12/21 03:03:17;;;;;;;140.10;77.13;;;11.50;99.90;;;;;;5031797;28;20022;-80
2020/12/21 03:05:43;;;;;;;135.10;76.47;;;11.50;99.90;;;;;;5031115;28;20030;-80
2020/12/21 03:08:10;;;;;;;136.50;77.43;;;11.50;99.90;;;;;;5031669;28;20032;-81
2020/12/21 03:10:37;;;;;;;139.93;78.22;;;11.50;99.90;;;;;;5031262;28;21587;-81
2020/12/21 03:13:04;;;;;;;145.63;79.25;;;11.50;99.90;;;;;;5031300;28;20024;-81
2020/12/21 03:15:29;;;;;;;130.60;74.93;;;11.50;99.90;;;;;;5030939;28;20056;-80
2020/12/21 03:17:58;;;;;;;143.80;78.43;;;11.50;99.90;;;;;;5031293;28;20103;-79
2020/12/21 03:20:24;;;;;;;149.38;80.00;;;11.50;99.90;;;;;;5030921;28;20024;-80
2020/12/21 03:22:50;;;;;;;140.63;76.10;;;11.50;99.90;;;;;;5031460;28;20029;-79
2020/12/21 03:25:17;;;;;;;141.32;77.65;;;11.50;99.90;;;;;;5031438;28;20041;-80
2020/12/21 03:27:43;;;;;;;138.68;78.45;;;11.50;99.90;;;;;;5030514;28;20021;-78
2020/12/21 03:30:16;;;;;;;152.68;84.18;;;11.50;99.90;;;;;;5012791;28;20458;-80
2020/12/21 03:32:56;;;;;;;145.63;79.70;;;11.50;99.90;;;;;;5030810;28;20029;-79
2020/12/21 03:39:18;;;;;;;146.05;77.82;;;11.40;99.90;;;;;;5030850;28;20070;-78
2020/12/21 03:46:03;;;;;;;150.55;79.68;;;11.40;99.90;;;;;;5030732;28;20130;-79
2020/12/21 03:56:24;;;;;;;;;;;;;;;;;;;;;
2020/12/21 04:02:19;;;;;;;137.68;72.88;;;11.40;99.90;;;;;;4931043;29;20043;-79
2020/12/21 04:15:20;;;;;;;127.75;67.22;;;11.30;99.90;;;;;;4916146;29;20039;-78
2020/12/21 04:24:45;;;;;;;124.10;66.93;;;11.20;99.90;;;;;;4916542;29;20063;-78
2020/12/21 04:27:52;;;;;;;130.95;67.05;;;11.30;99.90;;;;;;4949391;28;20070;-79
2020/12/21 04:30:32;;;;;;;118.72;65.97;;;11.30;99.90;;;;;;4984641;28;20390;-79
2020/12/21 04:40:24;;;;;;;;;;;;;;;;;;;;;
2020/12/21 04:57:33;;;;;;;121.38;67.10;;;11.20;99.90;;;;;;4926193;29;20032;-79
2020/12/21 04:59:58;;;;;;;127.30;67.68;;;11.20;99.90;;;;;;4868640;29;20459;-79
2020/12/21 05:02:24;;;;;;;115.95;64.35;;;11.30;99.90;;;;;;4891541;29;20118;-80
2020/12/21 05:04:53;;;;;;;109.35;63.25;;;11.30;99.90;;;;;;4952144;29;20071;-79
2020/12/21 05:07:30;;;;;;;116.65;63.17;;;11.30;99.90;;;;;;5028672;28;20026;-81
2020/12/21 05:10:08;;;;;;;121.78;66.20;;;11.30;99.90;;;;;;5033875;28;20085;-81
2020/12/21 05:12:41;;;;;;;122.13;66.47;;;11.30;99.90;;;;;;5032959;28;20021;-80
2020/12/21 05:15:23;;;;;;;115.40;65.03;;;11.30;99.90;;;;;;5033372;28;20022;-81
2020/12/21 05:17:49;;;;;;;114.75;63.78;;;11.30;99.90;;;;;;5034219;28;20358;-80
2020/12/21 05:20:17;;;;;;;120.70;65.38;;;11.30;99.90;;;;;;5033417;28;20441;-79
2020/12/21 05:22:50;;;;;;;123.75;66.25;;;11.30;99.90;;;;;;5033568;28;20017;-80
2020/12/21 05:25:23;;;;;;;121.93;65.53;;;11.30;99.90;;;;;;5033518;28;20079;-79
2020/12/21 05:27:50;;;;;;;114.50;62.75;;;11.20;99.90;;;;;;5032673;28;20049;-80
2020/12/21 05:30:18;;;;;;;113.93;63.35;;;11.20;99.90;;;;;;5033551;28;20026;-79
2020/12/21 05:32:47;;;;;;;119.97;61.92;;;11.20;99.90;;;;;;5033343;28;20021;-80
2020/12/21 05:35:30;;;;;;;;;;;;;;;;;;;;;
2020/12/21 05:38:29;;;;;;;120.43;63.50;;;11.10;99.90;;;;;;5032556;28;20025;-79
2020/12/21 05:41:34;;;;;;;118.57;63.15;;;11.10;99.90;;;;;;4923451;29;20051;-78
2020/12/21 05:44:53;;;;;;;;;;;;;;;;;;;;;
2020/12/21 05:47:35;;;;;;;120.10;63.42;;;11.00;99.90;;;;;;4983652;28;20486;-80
2020/12/21 05:50:48;;;;;;;116.43;63.80;;;11.10;99.90;;;;;;5013202;28;20026;-79
2020/12/21 05:53:14;;;;;;;113.15;62.42;;;11.10;99.90;;;;;;5012741;28;20269;-81
2020/12/21 05:55:39;;;;;;;101.68;60.70;;;11.10;99.90;;;;;;5012450;28;20045;-79
2020/12/21 05:58:05;;;;;;;117.82;65.78;;;11.10;99.90;;;;;;5012543;28;20402;-81
2020/12/21 06:00:32;;;;;;;110.28;63.45;;;11.10;99.90;;;;;;5012880;28;20030;-80
2020/12/21 06:03:07;;;;;;;114.22;63.42;;;11.10;99.90;;;;;;5013302;28;20042;-81
2020/12/21 06:05:37;;;;;;;122.82;65.20;;;11.20;99.90;;;;;;5012824;28;20030;-80
2020/12/21 06:08:03;;;;;;;123.95;65.70;;;11.10;99.90;;;;;;5013193;28;20018;-81
2020/12/21 06:10:36;;;;;;;117.40;66.25;;;11.10;99.90;;;;;;5012824;28;20033;-80
2020/12/21 06:13:05;;;;;;;115.65;64.75;;;11.10;99.90;;;;;;5012216;28;20053;-78
2020/12/21 06:15:37;;;;;;;116.38;64.15;;;11.20;99.90;;;;;;5012665;28;20096;-80
2020/12/21 06:18:11;;;;;;;116.45;64.30;;;11.20;99.90;;;;;;5012837;28;20080;-79
2020/12/21 06:37:33;;;;;;;117.03;64.68;;;11.30;99.90;;;;;;4853526;29;20056;-78
2020/12/21 06:40:49;;;;;;;113.05;65.95;;;11.30;99.90;;;;;;4856280;29;20129;-78
2020/12/21 06:43:15;;;;;;;124.45;68.22;;;11.30;99.90;;;;;;4853429;29;20055;-80
2020/12/21 06:45:44;;;;;;;133.05;70.28;;;11.30;99.90;;;;;;4932215;29;20040;-79
2020/12/21 06:48:23;;;;;;;114.93;65.93;;;11.30;99.90;;;;;;4985165;28;20378;-78
2020/12/21 06:50:52;;;;;;;114.13;67.85;;;11.30;99.90;;;;;;5004492;28;20018;-78
2020/12/21 06:54:06;;;;;;;117.47;64.53;;;11.30;99.90;;;;;;5011790;28;20025;-79
2020/12/21 06:56:32;;;;;;;127.90;66.90;;;11.30;99.90;;;;;;4996503;28;20080;-79
2020/12/21 06:59:00;;;;;;;119.50;64.75;;;11.30;99.90;;;;;;5005483;28;20030;-79
2020/12/21 07:01:28;;;;;;;118.15;63.80;;;11.30;99.90;;;;;;5009358;28;20378;-77
2020/12/21 07:03:54;;;;;;;118.82;66.75;;;11.30;99.90;;;;;;5008558;28;20026;-78
2020/12/21 07:07:20;;;;;;;116.45;65.22;;;11.40;99.90;;;;;;5010468;28;20506;-80
2020/12/21 07:14:12;;;;;;;;;;;;;;;;;;;;;
2020/12/21 07:17:52;;;;;;;119.55;65.15;;;11.40;99.90;;;;;;4973215;28;20030;-77
2020/12/21 07:24:06;;;;;;;126.28;69.05;;;11.40;99.90;;;;;;4892524;29;20032;-78
2020/12/21 07:52:05;;;;;;;119.40;65.63;;;11.50;99.90;;;;;;4935066;29;20607;-77
2020/12/21 07:55:03;;;;;;;126.35;67.55;;;11.40;99.90;;;;;;4929528;29;20032;-77
2020/12/21 08:15:09;;;;;;;;;;;;;;;;;;;;;
2020/12/21 08:18:20;;;;;;;101.30;59.63;;;11.40;99.90;;;;;;4948394;28;20028;-77
2020/12/21 08:25:36;;;;;;;;;;;;;;;;;;;;;
2020/12/21 08:28:36;;;;;;;106.78;62.25;;;11.50;99.90;;;;;;4909163;29;20133;-76
2020/12/21 08:32:20;;;;;;;105.60;60.03;;;11.60;99.90;;;;;;4910218;29;20082;-79
2020/12/21 08:38:17;;;;;;;111.75;62.40;;;11.60;99.90;;;;;;4910471;28;20038;-76
2020/12/21 08:48:31;;;;;;;119.07;63.30;;;11.60;99.90;;;;;;4988908;28;20042;-78
2020/12/21 08:58:18;;;;;;;122.47;68.25;;;11.70;99.90;;;;;;4952303;28;20139;-79
2020/12/21 09:21:01;;;;;;;121.93;69.15;;;11.80;99.90;;;;;;4885492;29;20481;-79
2020/12/21 09:23:55;;;;;;;133.45;66.82;;;11.90;99.90;;;;;;4887720;29;20041;-78
2020/12/21 09:27:08;;;;;;;143.48;74.70;;;11.90;99.90;;;;;;4862974;29;20040;-78
2020/12/21 09:30:15;;;;;;;;;;;;;;;;;;;;;
2020/12/21 09:33:16;;;;;;;133.38;71.93;;;11.90;99.90;;;;;;4978890;28;20038;-78
2020/12/21 09:36:37;;;;;;;;;;;;;;;;;;;;;
2020/12/21 09:39:36;;;;;;;122.45;64.43;;;11.90;99.90;;;;;;4893216;29;20040;-78
2020/12/21 09:46:13;;;;;;;110.35;61.13;;;12.00;99.90;;;;;;4971786;28;20065;-79
2020/12/21 09:55:38;;;;;;;120.35;65.72;;;12.00;99.90;;;;;;5011702;28;20033;-78
2020/12/21 10:01:46;;;;;;;118.13;63.90;;;12.00;99.90;;;;;;5009721;28;20032;-77
2020/12/21 10:04:56;;;;;;;;;;;;;;;;;;;;;
2020/12/21 10:08:37;;;;;;;118.22;67.60;;;12.10;99.90;;;;;;5009450;28;20034;-77
2020/12/21 10:11:01;;;;;;;;;;;;;;;;;;;;;
2020/12/21 10:16:38;;;;;;;108.35;62.33;;;12.20;99.90;;;;;;4984132;28;20136;-78
2020/12/21 10:19:03;;;;;;;108.25;63.97;;;12.10;99.90;;;;;;4984431;28;20026;-78
2020/12/21 10:21:29;;;;;;;129.38;65.97;;;12.20;99.90;;;;;;5006998;28;20481;-79
2020/12/21 10:23:55;;;;;;;116.72;65.57;;;12.10;99.90;;;;;;5011548;28;21071;-78
2020/12/21 10:26:21;;;;;;;122.47;65.28;;;12.10;99.90;;;;;;5010986;28;20052;-79
2020/12/21 10:28:46;;;;;;;113.25;64.78;;;12.10;99.90;;;;;;5010961;28;20026;-78
2020/12/21 10:31:13;;;;;;;115.03;66.57;;;12.10;99.90;;;;;;5011886;28;20030;-78
2020/12/21 10:33:39;;;;;;;120.57;67.60;;;12.10;99.90;;;;;;5011261;28;20026;-78
2020/12/21 10:36:05;;;;;;;123.68;69.35;;;12.00;99.90;;;;;;5006617;28;20025;-78
2020/12/21 10:38:31;;;;;;;116.55;67.97;;;12.00;99.90;;;;;;5010947;28;20022;-78
2020/12/21 10:41:00;;;;;;;121.72;67.05;;;12.00;99.90;;;;;;5010635;28;20029;-78
2020/12/21 10:43:35;;;;;;;125.80;69.30;;;12.00;99.90;;;;;;5022136;28;20038;-78
2020/12/21 10:46:01;;;;;;;135.40;73.20;;;12.00;99.90;;;;;;5031057;28;20041;-78
2020/12/21 10:48:27;;;;;;;136.57;74.63;;;12.00;99.90;;;;;;5030242;28;20029;-76
2020/12/21 10:51:03;;;;;;;125.38;70.88;;;12.00;99.90;;;;;;5030493;28;20039;-81
2020/12/21 10:53:29;;;;;;;129.15;69.13;;;12.00;99.90;;;;;;5030534;28;20076;-80
2020/12/21 10:55:55;;;;;;;134.57;75.32;;;12.10;99.90;;;;;;5030431;28;20702;-78
2020/12/21 10:58:21;;;;;;;137.38;75.00;;;12.10;99.90;;;;;;5030793;28;20033;-78
2020/12/21 11:01:14;;;;;;;143.18;75.93;;;12.00;99.90;;;;;;5030134;28;20021;-77
2020/12/21 11:03:47;;;;;;;141.15;76.03;;;12.00;99.90;;;;;;5022017;28;20036;-78
2020/12/21 11:06:24;;;;;;;140.07;74.68;;;12.00;99.90;;;;;;5023035;28;20469;-76
2020/12/21 11:08:52;;;;;;;139.20;75.10;;;11.90;99.90;;;;;;5030517;28;20148;-78
2020/12/21 11:11:28;;;;;;;134.50;75.38;;;11.90;99.90;;;;;;5028591;28;20025;-78
2020/12/21 11:13:55;;;;;;;139.25;75.53;;;11.90;99.90;;;;;;5018975;28;20515;-78
2020/12/21 11:16:22;;;;;;;140.57;75.75;;;11.90;99.90;;;;;;5009261;28;20073;-75
2020/12/21 11:18:48;;;;;;;125.13;72.57;;;11.90;99.90;;;;;;5015927;28;20111;-77
2020/12/21 11:21:15;;;;;;;137.95;76.03;;;11.90;99.90;;;;;;5019608;28;20026;-77
2020/12/21 11:23:41;;;;;;;128.93;72.05;;;11.90;99.90;;;;;;5019796;28;20021;-78
2020/12/21 11:26:30;;;;;;;142.18;73.13;;;11.90;99.90;;;;;;5019075;28;20034;-78
2020/12/21 11:28:56;;;;;;;136.35;73.00;;;11.90;99.90;;;;;;5017393;28;20025;-79
2020/12/21 11:31:36;;;;;;;137.38;75.68;;;11.90;99.90;;;;;;5014995;28;20378;-77
2020/12/21 11:34:05;;;;;;;143.18;75.70;;;11.90;99.90;;;;;;5010652;28;20033;-78
2020/12/21 11:36:31;;;;;;;136.98;75.50;;;11.90;99.90;;;;;;5019087;28;20033;-78
2020/12/21 11:39:05;;;;;;;139.95;75.90;;;12.00;99.90;;;;;;5010269;28;20053;-77
2020/12/21 11:41:31;;;;;;;128.65;73.00;;;12.00;99.90;;;;;;5027599;28;20050;-76
2020/12/21 11:43:57;;;;;;;143.68;75.20;;;12.00;99.90;;;;;;5026641;28;20080;-79
2020/12/21 11:46:38;;;;;;;132.73;72.70;;;12.00;99.90;;;;;;5026805;28;20029;-77
2020/12/21 11:49:04;;;;;;;139.18;75.20;;;12.00;99.90;;;;;;5011309;28;20018;-79
2020/12/21 11:51:30;;;;;;;145.88;75.35;;;12.00;99.90;;;;;;5016509;28;20481;-78
2020/12/21 11:53:56;;;;;;;143.52;75.30;;;12.00;99.90;;;;;;5018496;28;20079;-77
2020/12/21 11:56:22;;;;;;;145.63;76.55;;;12.00;99.90;;;;;;5028053;28;20118;-77
2020/12/21 11:58:54;;;;;;;142.80;75.50;;;12.00;99.90;;;;;;5030343;28;20104;-79
2020/12/21 12:01:20;;;;;;;156.73;77.38;;;12.00;99.90;;;;;;5030602;28;20470;-76
2020/12/21 12:03:46;;;;;;;148.68;76.50;;;12.00;99.90;;;;;;5030627;28;20029;-77
2020/12/21 12:06:12;;;;;;;146.68;75.00;;;11.90;99.90;;;;;;5030920;28;20034;-77
2020/12/21 12:08:38;;;;;;;162.57;78.65;;;11.90;99.90;;;;;;5030059;28;20025;-76
2020/12/21 12:11:08;;;;;;;166.52;81.13;;;11.90;99.90;;;;;;5030326;28;20111;-80
2020/12/21 12:13:34;;;;;;;153.93;81.38;;;11.90;99.90;;;;;;5030160;28;20509;-76
2020/12/21 12:15:59;;;;;;;151.73;79.30;;;11.90;99.90;;;;;;5030555;28;20032;-76
2020/12/21 12:18:25;;;;;;;150.65;78.55;;;11.90;99.90;;;;;;5012473;28;20113;-77
2020/12/21 12:20:53;;;;;;;146.57;78.18;;;12.00;99.90;;;;;;5028285;28;20149;-74
2020/12/21 12:23:48;;;;;;;138.95;78.25;;;12.00;99.90;;;;;;5028403;28;20024;-75
2020/12/21 12:26:17;;;;;;;148.48;78.43;;;12.00;99.90;;;;;;5031889;28;20503;-78
2020/12/21 12:28:43;;;;;;;142.32;78.07;;;12.10;99.90;;;;;;5032553;28;20401;-79
2020/12/21 12:31:14;;;;;;;144.45;79.55;;;12.10;99.90;;;;;;5034356;28;20405;-80
2020/12/21 12:33:40;;;;;;;146.40;76.55;;;12.10;99.90;;;;;;5031548;28;20028;-78
2020/12/21 12:36:06;;;;;;;141.35;78.72;;;12.20;99.90;;;;;;5033497;28;20022;-79
2020/12/21 12:38:31;;;;;;;145.63;79.05;;;12.20;99.90;;;;;;5033743;28;20053;-78
2020/12/21 12:40:57;;;;;;;137.73;76.57;;;12.30;99.90;;;;;;5033768;28;20478;-79
2020/12/21 12:43:58;;;;;;;144.98;76.50;;;12.30;99.90;;;;;;5032346;28;20077;-78
2020/12/21 12:46:24;;;;;;;144.35;78.25;;;12.30;99.90;;;;;;5026921;28;20037;-77
2020/12/21 12:49:21;;;;;;;148.82;77.43;;;12.30;99.90;;;;;;5034024;28;20367;-78
2020/12/21 12:51:54;;;;;;;159.43;83.20;;;12.40;99.90;;;;;;5032406;28;20021;-77
2020/12/21 12:54:20;;;;;;;152.75;82.95;;;12.30;99.90;;;;;;5033824;28;20111;-78
2020/12/21 12:56:47;;;;;;;156.32;80.95;;;12.40;99.90;;;;;;5033319;28;20096;-77
2020/12/21 12:59:13;;;;;;;151.02;83.07;;;12.40;99.90;;;;;;5033345;28;20036;-77
2020/12/21 13:01:38;;;;;;;143.70;81.90;;;12.40;99.90;;;;;;5033748;28;20013;-78
2020/12/21 13:04:04;;;;;;;157.45;87.35;;;12.50;99.90;;;;;;5033083;28;20057;-76
2020/12/21 13:06:38;;;;;;;153.20;90.82;;;12.50;99.90;;;;;;5032921;28;20059;-77
2020/12/21 13:09:04;;;;;;;153.48;89.70;;;12.40;99.90;;;;;;5033189;28;20363;-80
2020/12/21 13:11:30;;;;;;;156.80;89.55;;;12.40;99.90;;;;;;5032903;28;20020;-77
2020/12/21 13:13:56;;;;;;;151.10;86.65;;;12.40;99.90;;;;;;5033309;28;20112;-79
2020/12/21 13:16:33;;;;;;;169.32;92.28;;;12.40;99.90;;;;;;5032981;28;20531;-78
2020/12/21 13:19:02;;;;;;;159.30;88.80;;;12.40;99.90;;;;;;5032689;28;20428;-78
2020/12/21 13:21:37;;;;;;;160.95;94.13;;;12.40;99.90;;;;;;5031803;28;20045;-79
2020/12/21 13:24:06;;;;;;;165.73;96.30;;;12.40;99.90;;;;;;5032115;28;20025;-77
2020/12/21 13:40:38;;;;;;;145.38;80.55;;;12.50;99.90;;;;;;4954986;28;20065;-77
2020/12/21 13:46:51;;;;;;;149.13;82.82;;;12.40;99.90;;;;;;4947407;28;20188;-77
2020/12/21 13:49:17;;;;;;;148.27;79.10;;;12.40;99.90;;;;;;4972927;28;20152;-77
2020/12/21 13:55:40;;;;;;;149.30;84.47;;;12.40;99.90;;;;;;4974053;28;20113;-79
2020/12/21 13:58:06;;;;;;;147.10;82.30;;;12.40;99.90;;;;;;4971966;28;20066;-76
2020/12/21 14:00:52;;;;;;;149.20;83.68;;;12.30;99.90;;;;;;4986889;28;20510;-76
2020/12/21 14:03:26;;;;;;;156.85;86.30;;;12.30;99.90;;;;;;4973420;28;20200;-76
2020/12/21 14:06:16;;;;;;;159.65;81.68;;;12.30;99.90;;;;;;4985545;28;20153;-78
2020/12/21 14:09:00;;;;;;;161.00;81.88;;;12.30;99.90;;;;;;5009545;28;20030;-77
2020/12/21 14:11:53;;;;;;;137.85;77.78;;;12.30;99.90;;;;;;5009120;28;20037;-78
2020/12/21 14:14:19;;;;;;;144.98;78.07;;;12.30;99.90;;;;;;5016721;28;20093;-76
2020/12/21 14:17:08;;;;;;;140.30;80.88;;;12.30;99.90;;;;;;5030880;28;20022;-78
2020/12/21 14:19:39;;;;;;;151.20;84.05;;;12.30;99.90;;;;;;5024855;28;20378;-78
2020/12/21 14:22:05;;;;;;;;;;;12.30;99.90;;;;;;5029493;28;20048;-77
2020/12/21 14:24:31;;;;;;;157.18;84.03;;;12.30;99.90;;;;;;5024009;28;19917;-76
2020/12/21 14:27:04;;;;;;;155.02;83.05;;;12.30;99.90;;;;;;5020663;28;20060;-75
2020/12/21 14:29:48;;;;;;;170.40;89.53;;;12.30;99.90;;;;;;5007731;28;20374;-78
2020/12/21 14:32:17;;;;;;;148.98;84.85;;;12.30;99.90;;;;;;5025173;28;20075;-79
2020/12/21 14:34:43;;;;;;;160.27;86.60;;;12.30;99.90;;;;;;5025130;28;20021;-76
2020/12/21 14:37:17;;;;;;;161.00;87.38;;;12.30;99.90;;;;;;5025389;28;20029;-76
2020/12/21 14:39:47;;;;;;;160.38;85.00;;;12.30;99.90;;;;;;5024707;28;20504;-77
2020/12/21 14:42:25;;;;;;;174.43;88.22;;;12.20;99.90;;;;;;5024484;28;20032;-76
2020/12/21 14:45:25;;;;;;;171.18;90.95;;;12.20;99.90;;;;;;5029962;28;20105;-77
2020/12/21 14:47:52;;;;;;;153.95;87.07;;;12.20;99.90;;;;;;5027487;28;20486;-76
2020/12/21 14:50:19;;;;;;;158.18;86.05;;;12.20;99.90;;;;;;5023834;28;20072;-76
2020/12/21 14:52:45;;;;;;;159.80;89.75;;;12.20;99.90;;;;;;5024242;28;20145;-76
2020/12/21 14:55:11;;;;;;;166.15;89.72;;;12.20;99.90;;;;;;5022927;28;20021;-74
2020/12/21 14:57:37;;;;;;;170.20;90.28;;;12.20;99.90;;;;;;5021848;28;20420;-77
2020/12/21 15:00:04;;;;;;;162.30;89.65;;;12.10;99.90;;;;;;5024066;28;20075;-76
2020/12/21 15:02:30;;;;;;;165.60;89.97;;;12.10;99.90;;;;;;5022463;28;20063;-76
2020/12/21 15:05:14;;;;;;;172.68;89.85;;;12.10;99.90;;;;;;5025051;28;20424;-76
2020/12/21 15:08:07;;;;;;;158.13;84.88;;;12.10;99.90;;;;;;5024664;28;20078;-75
2020/12/21 15:11:05;;;;;;;162.10;83.93;;;12.00;99.90;;;;;;5028473;28;20021;-77
2020/12/21 15:16:34;;;;;;;147.05;80.40;;;11.90;99.90;;;;;;4983847;28;20398;-76
2020/12/21 15:19:00;;;;;;;158.55;80.47;;;11.90;99.90;;;;;;5028456;28;20025;-78
2020/12/21 15:21:27;;;;;;;141.07;74.10;;;11.90;99.90;;;;;;5029872;28;20025;-77
2020/12/21 15:23:53;;;;;;;127.97;73.22;;;12.00;99.90;;;;;;5018868;28;20056;-79
2020/12/21 15:26:19;;;;;;;154.48;73.03;;;12.00;99.90;;;;;;5022280;28;21541;-77
2020/12/21 15:29:07;;;;;;;142.95;77.32;;;12.00;99.90;;;;;;5029960;28;20049;-77
2020/12/21 15:31:33;;;;;;;142.95;73.60;;;12.00;99.90;;;;;;5026627;28;20053;-76
2020/12/21 15:34:23;;;;;;;142.40;75.70;;;12.00;99.90;;;;;;5029749;28;20048;-76
2020/12/21 15:36:57;;;;;;;149.93;79.03;;;12.00;99.90;;;;;;5025333;28;20045;-73
2020/12/21 15:39:27;;;;;;;160.02;82.25;;;12.00;99.90;;;;;;5026945;28;20029;-76
2020/12/21 15:42:01;;;;;;;159.00;81.70;;;11.90;99.90;;;;;;5023669;28;20113;-74
2020/12/21 15:45:16;;;;;;;;;;;;;;;;;;;;;
2020/12/21 15:48:36;;;;;;;151.65;76.15;;;11.90;99.90;;;;;;5024758;28;20036;-75
2020/12/21 15:51:10;;;;;;;150.10;79.63;;;11.90;99.90;;;;;;4961873;28;20034;-75
2020/12/21 15:53:40;;;;;;;154.52;82.10;;;11.90;99.90;;;;;;4960256;28;20539;-77
2020/12/21 15:56:09;;;;;;;158.02;82.18;;;11.90;99.90;;;;;;5010707;28;20041;-77
2020/12/21 15:58:38;;;;;;;172.57;86.47;;;11.80;99.90;;;;;;5022427;28;20045;-76
2020/12/21 16:01:04;;;;;;;167.65;86.68;;;11.80;99.90;;;;;;5006331;28;20026;-79
2020/12/21 16:03:30;;;;;;;159.27;82.32;;;11.80;99.90;;;;;;5023535;28;20026;-77
2020/12/21 16:05:56;;;;;;;155.52;80.22;;;11.90;99.90;;;;;;5010293;28;20413;-74
2020/12/21 16:08:22;;;;;;;145.70;80.50;;;11.80;99.90;;;;;;5027007;28;20021;-77
2020/12/21 16:10:48;;;;;;;157.95;85.68;;;11.90;99.90;;;;;;5025198;28;20017;-77
2020/12/21 16:13:14;;;;;;;155.13;85.47;;;11.80;99.90;;;;;;5014210;28;20218;-77
2020/12/21 16:19:05;;;;;;;159.10;87.88;;;11.80;99.90;;;;;;5014754;28;20088;-78
2020/12/21 16:21:34;;;;;;;159.20;86.07;;;11.80;99.90;;;;;;5025283;28;20386;-78
2020/12/21 16:24:01;;;;;;;162.50;84.28;;;11.90;99.90;;;;;;5040018;28;20029;-81
2020/12/21 16:26:27;;;;;;;153.65;86.25;;;11.90;99.90;;;;;;5031908;28;20037;-82
2020/12/21 16:28:53;;;;;;;156.18;86.60;;;11.90;99.90;;;;;;5030878;28;20446;-77
2020/12/21 16:31:19;;;;;;;154.82;83.90;;;11.90;99.90;;;;;;5031571;28;20036;-77
2020/12/21 16:34:04;;;;;;;157.68;83.30;;;11.90;99.90;;;;;;5025805;28;20021;-77
2020/12/21 16:36:32;;;;;;;160.07;86.93;;;11.90;99.90;;;;;;5025188;28;20070;-75
2020/12/21 16:39:04;;;;;;;150.25;85.82;;;11.90;99.90;;;;;;5027313;28;20022;-77
2020/12/21 16:44:45;;;;;;;153.30;83.28;;;11.80;99.90;;;;;;5023193;28;20042;-78
2020/12/21 16:47:12;;;;;;;160.07;86.90;;;11.80;99.90;;;;;;5028841;28;20025;-77
2020/12/21 16:49:37;;;;;;;162.77;88.30;;;11.80;99.90;;;;;;5028631;28;20024;-76
2020/12/21 16:52:04;;;;;;;167.65;90.72;;;11.80;99.90;;;;;;5029085;28;20021;-75
2020/12/21 16:54:29;;;;;;;171.48;92.93;;;11.90;99.90;;;;;;5029328;28;20033;-79
2020/12/21 16:56:58;;;;;;;165.88;94.88;;;11.80;99.90;;;;;;5029431;28;20470;-74
2020/12/21 16:59:25;;;;;;;184.70;97.53;;;11.80;99.90;;;;;;5024402;28;20039;-79
2020/12/21 17:02:35;;;;;;;182.50;99.78;;;11.80;99.90;;;;;;5028425;28;20049;-74
2020/12/21 17:05:01;;;;;;;182.55;96.07;;;11.80;99.90;;;;;;5004899;28;20038;-79
2020/12/21 17:07:35;;;;;;;192.93;96.60;;;11.80;99.90;;;;;;5027849;28;20032;-78
2020/12/21 17:10:07;;;;;;;186.30;100.60;;;11.80;99.90;;;;;;5026331;28;20100;-76
2020/12/21 17:13:12;;;;;;;182.20;99.25;;;11.80;99.90;;;;;;5032125;28;20022;-75
2020/12/21 17:15:41;;;;;;;190.10;99.95;;;11.80;99.90;;;;;;5032637;28;20049;-80
2020/12/21 17:18:07;;;;;;;176.00;96.35;;;11.80;99.90;;;;;;5015187;28;20029;-79
2020/12/21 17:20:33;;;;;;;184.18;100.22;;;11.80;99.90;;;;;;5032959;28;20014;-81
2020/12/21 17:23:28;;;;;;;179.50;93.80;;;11.80;99.90;;;;;;5032503;28;20155;-76
2020/12/21 17:26:07;;;;;;;170.88;92.60;;;11.80;99.90;;;;;;5030705;28;20041;-78
2020/12/21 17:28:33;;;;;;;183.60;95.07;;;11.80;99.90;;;;;;5031392;28;20025;-77
2020/12/21 17:31:00;;;;;;;167.15;90.25;;;11.80;99.90;;;;;;5032845;28;20034;-78
2020/12/21 17:33:25;;;;;;;175.20;91.35;;;11.80;99.90;;;;;;5032422;28;20025;-80
2020/12/21 17:35:51;;;;;;;183.25;98.55;;;11.80;99.90;;;;;;5033020;28;20033;-77
2020/12/21 17:38:19;;;;;;;186.45;97.78;;;11.80;99.90;;;;;;5032223;28;20026;-77
2020/12/21 17:40:48;;;;;;;187.88;95.97;;;11.80;99.90;;;;;;5032781;28;20052;-80
2020/12/21 17:43:26;;;;;;;178.93;94.53;;;11.80;99.90;;;;;;5031201;28;20148;-78
2020/12/21 17:45:55;;;;;;;183.80;97.40;;;11.70;99.90;;;;;;5020912;28;20029;-80
2020/12/21 17:48:22;;;;;;;178.13;93.22;;;11.70;99.90;;;;;;5027132;28;20052;-76
2020/12/21 17:50:57;;;;;;;174.65;92.07;;;11.80;99.90;;;;;;5013488;28;20029;-78
2020/12/21 17:53:54;;;;;;;171.73;92.53;;;11.80;99.90;;;;;;5011158;28;20022;-76
2020/12/21 17:56:19;;;;;;;174.32;94.03;;;11.80;99.90;;;;;;4994879;28;20116;-77
2020/12/21 17:58:45;;;;;;;174.50;89.53;;;11.80;99.90;;;;;;5012472;28;20176;-76
2020/12/21 18:01:11;;;;;;;173.57;88.63;;;11.80;99.90;;;;;;5003037;28;20520;-77